Date,TemperatureHighF,TemperatureAvgF,TemperatureLowF,DewpointHighF,DewpointAvgF,DewpointLowF,HumidityHigh,HumidityAvg,HumidityLow,PressureMaxIn,PressureMinIn,WindSpeedMaxMPH,WindSpeedAvgMPH,GustSpeedMaxMPH,PrecipitationSumIn
2013-5-29,61,58,56,57,55,53,94,89,81,29.57,29.51,5,2,8,0.82
2013-5-30,51,50,50,50,49,48,97,95,92,29.66,29.45,4,2,8,1.59
2013-5-31,59,52,45,54,50,44,98,92,74,29.66,29.41,10,2,22,0.10
2013-6-1,58,50,45,57,49,44,98,97,94,29.74,29.65,11,4,16,1.30
2013-6-2,57,51,48,56,50,47,97,95,90,30.04,29.67,10,4,20,2.10
2013-6-3,50,48,47,49,47,46,97,96,94,30.13,30.05,7,4,13,1.02
2013-6-4,61,54,49,54,50,47,96,88,76,30.11,30.04,11,3,12,0.04
2013-6-5,66,57,47,53,49,45,93,75,48,30.11,30.07,7,3,16,0.00
2013-6-6,65,57,50,58,53,49,97,88,71,30.16,30.11,4,2,13,0.00
2013-6-7,71,62,49,62,56,49,98,84,65,30.14,30.05,7,2,11,0.00
2013-6-8,75,65,55,64,59,54,98,81,53,30.08,29.89,6,2,10,0.00
2013-6-9,77,64,55,66,59,54,98,86,57,29.88,29.69,6,2,17,0.12
2013-6-10,60,58,56,59,57,53,98,95,88,29.86,29.69,7,1,12,0.87
2013-6-11,69,61,52,54,50,45,93,69,45,30.05,29.86,10,3,15,0.00
2013-6-12,73,62,51,58,50,46,92,67,42,30.14,30.06,7,2,10,0.00
2013-6-13,78,67,55,60,54,47,83,64,45,30.13,29.91,11,4,16,0.00
2013-6-14,68,62,54,57,53,47,93,73,48,30.12,29.91,8,3,14,0.04
2013-6-15,76,62,49,62,55,47,96,79,57,30.06,29.93,6,2,18,0.00
2013-6-16,77,67,57,58,55,52,90,68,44,30.04,29.96,8,3,14,0.00
2013-6-17,84,70,54,68,61,51,94,75,56,30.04,29.93,8,3,12,0.00
2013-6-18,91,77,61,76,68,59,96,74,42,30.00,29.93,5,2,9,0.00
2013-6-19,90,77,66,78,70,64,98,80,57,30.00,29.88,11,3,16,0.00
2013-6-20,91,78,65,75,70,63,97,78,53,29.88,29.73,9,3,12,0.00
2013-6-21,76,69,62,63,61,58,94,75,58,30.01,29.81,12,5,28,0.29
2013-6-22,78,69,61,62,60,56,90,73,51,30.02,29.91,6,2,10,0.00
2013-6-23,74,68,60,62,58,54,92,73,56,29.96,29.88,14,4,18,0.09
2013-6-24,64,57,54,56,52,49,97,86,61,30.06,29.96,10,3,15,0.46
2013-6-25,55,54,51,54,52,48,97,93,89,30.16,30.01,11,4,17,1.59
2013-6-26,54,51,49,49,48,45,95,87,77,30.28,30.15,11,5,16,0.06
2013-6-27,61,54,48,50,47,45,90,78,59,30.29,30.18,6,2,12,0.00
2013-6-28,65,56,44,52,48,43,97,76,47,30.20,30.09,7,2,12,0.00
2013-6-29,67,59,51,54,50,44,85,73,59,30.11,29.98,9,4,18,0.00
2013-6-30,64,56,50,54,46,43,93,70,50,30.19,30.07,11,4,15,0.02
2013-7-1,74,64,53,55,50,46,80,64,44,30.14,30.02,8,4,17,0.00
2013-7-2,80,68,55,62,55,50,84,65,44,30.03,29.92,7,3,15,0.00
2013-7-3,77,66,58,65,59,55,90,80,55,29.96,29.86,10,3,20,0.07
2013-7-4,74,67,59,63,61,58,96,82,65,30.20,29.97,8,3,11,0.12
2013-7-5,72,66,60,63,61,58,95,83,67,30.35,30.21,5,2,11,0.00
2013-7-6,73,66,57,65,60,55,95,82,67,30.37,30.31,5,2,14,0.00
2013-7-7,76,68,56,61,56,51,97,69,45,30.39,30.32,6,2,11,0.00
2013-7-8,76,71,62,59,57,54,81,62,48,30.39,30.30,9,3,14,0.00
2013-7-9,79,69,56,60,57,54,95,69,45,30.32,30.09,12,2,26,0.00
2013-7-10,79,72,64,59,56,54,70,58,46,29.97,29.90,13,4,15,0.00
2013-7-11,64,60,55,54,51,49,84,74,64,30.07,29.97,7,3,14,0.00
2013-7-12,70,62,55,54,52,50,92,71,53,30.12,30.07,9,3,14,0.00
2013-7-13,71,57,52,55,51,49,89,82,48,30.12,30.08,5,3,11,0.00
2013-7-14,75,70,61,57,56,54,88,62,49,30.13,30.07,9,3,14,0.00
2013-7-15,71,64,54,58,53,49,89,69,48,30.19,30.10,7,2,16,0.00
2013-7-16,78,65,52,58,52,48,89,66,40,30.25,30.15,6,2,10,0.00
2013-7-17,82,68,53,58,54,51,94,64,36,30.20,30.13,7,2,12,0.00
2013-7-18,82,70,53,60,55,51,93,63,38,30.19,30.11,8,2,14,0.00
2013-7-19,82,71,58,61,57,55,93,64,41,30.14,30.02,7,2,11,0.00
2013-7-20,79,69,58,59,56,52,88,65,43,30.12,30.06,6,2,14,0.00
2013-7-21,81,68,52,59,53,51,95,63,35,30.18,30.10,9,2,25,0.00
2013-7-22,85,70,53,58,52,48,89,58,29,30.12,29.96,5,2,9,0.00
2013-7-23,86,72,54,58,52,44,88,54,25,29.97,29.89,9,2,11,0.00
2013-7-24,88,72,55,61,53,48,89,56,26,29.97,29.89,7,2,12,0.00
2013-7-25,81,71,63,66,63,61,96,78,52,30.00,29.96,6,2,15,0.27
2013-7-26,88,75,61,66,61,58,94,67,37,30.01,29.91,7,1,11,0.00
2013-7-27,95,80,62,67,61,57,92,57,30,29.92,29.77,9,3,15,0.00
2013-7-28,97,84,66,65,62,57,81,50,29,29.87,29.76,10,3,13,0.00
2013-7-29,85,77,68,67,65,61,89,67,48,29.91,29.71,10,4,13,0.00
2013-7-30,76,70,64,63,58,55,83,66,52,30.06,30.01,12,5,20,0.01
2013-7-31,79,69,61,62,58,56,88,71,52,30.11,30.04,15,5,21,0.00
2013-8-1,84,68,57,62,59,56,96,74,41,30.13,30.01,5,2,9,0.00
2013-8-2,92,76,58,66,59,55,95,61,29,30.04,29.93,7,2,11,0.00
2013-8-3,97,75,62,65,58,51,83,61,22,29.99,29.93,6,1,11,0.00
2013-8-4,86,73,62,67,63,59,94,73,51,30.14,30.02,15,4,45,1.45
2013-8-5,82,68,56,68,62,55,98,83,59,30.14,30.00,7,2,9,0.01
2013-8-6,92,76,62,70,65,59,97,72,35,30.00,29.84,16,3,35,0.05
2013-8-7,86,73,62,69,65,61,95,78,57,30.00,29.81,15,4,23,0.35
2013-8-8,82,74,64,70,65,59,86,72,60,29.99,29.78,6,2,11,0.01
2013-8-9,71,64,56,64,59,55,95,85,71,30.11,30.01,7,2,10,0.41
2013-8-10,74,63,55,62,57,54,97,81,56,30.13,30.03,7,3,19,0.01
2013-8-11,73,63,54,59,54,49,97,76,53,30.08,30.01,6,2,15,0.00
2013-8-12,76,64,49,58,53,47,96,70,45,30.09,29.90,7,2,11,0.00
2013-8-13,70,63,56,56,51,44,91,68,40,30.10,29.89,14,4,18,0.00
2013-8-14,70,59,50,51,47,43,90,67,40,30.23,30.10,6,2,12,0.00
2013-8-15,72,60,48,51,45,40,89,63,33,30.27,30.19,7,2,10,0.00
2013-8-16,78,64,48,53,48,44,89,59,32,30.21,30.06,8,2,13,0.00
2013-8-17,83,67,50,57,51,46,87,60,32,30.08,29.96,8,2,13,0.00
2013-8-18,87,74,59,62,57,52,81,58,36,29.99,29.90,10,3,16,0.00
2013-8-19,74,64,59,64,59,56,97,85,64,30.07,29.94,21,3,24,0.37
2013-8-20,65,59,54,58,55,52,96,87,65,30.36,30.08,6,3,15,0.00
2013-8-21,70,58,48,54,50,46,98,77,44,30.36,30.23,7,2,13,0.01
2013-8-22,71,58,48,56,51,46,96,79,52,30.23,30.11,8,2,9,0.00
2013-8-23,72,60,47,56,51,46,97,76,47,30.13,30.05,12,3,15,0.00
2013-8-24,76,62,50,57,54,49,97,75,48,30.07,29.89,10,3,15,0.00
2013-8-25,64,59,55,57,55,52,96,87,73,29.91,29.85,13,5,18,0.58
2013-8-26,59,57,57,58,56,56,97,96,93,29.97,29.89,11,5,15,0.50
2013-8-27,62,58,55,55,54,53,96,86,78,29.98,29.96,8,3,13,0.15
2013-8-28,66,59,54,58,56,53,98,90,70,30.10,29.95,9,1,12,0.32
2013-8-29,73,60,51,57,54,50,97,80,47,30.18,30.10,9,2,14,0.01
2013-8-30,74,61,48,58,53,47,97,76,42,30.17,30.08,6,1,10,0.00
2013-8-31,75,65,58,58,54,51,84,68,46,30.10,30.03,8,4,20,0.00
2013-9-1,63,58,51,57,49,42,95,74,50,30.23,30.09,12,3,14,0.42
2013-9-2,63,56,51,54,49,44,88,76,64,30.23,30.13,11,7,21,0.00
2013-9-3,63,62,60,57,56,54,82,80,79,30.19,30.12,12,8,23,0.00
2013-9-5,74,66,57,62,58,54,98,78,60,30.15,30.03,6,2,17,0.01
2013-9-6,76,64,51,58,55,50,98,76,50,30.02,29.93,10,3,16,0.00
2013-9-7,78,63,49,61,54,48,97,75,49,30.10,30.00,9,3,14,0.00
2013-9-8,77,66,52,62,56,46,88,71,53,30.10,29.98,8,3,14,0.00
2013-9-9,67,60,48,59,54,45,96,82,56,30.09,29.84,14,4,28,0.50
2013-9-10,64,54,48,55,50,44,94,85,65,30.08,29.93,8,3,16,0.30
2013-9-11,61,54,50,50,48,47,93,81,66,30.01,29.92,9,5,20,0.00
2013-9-12,59,54,50,51,49,48,95,86,69,30.00,29.89,9,3,13,0.03
2013-9-13,62,54,50,54,51,49,96,88,71,30.08,30.01,8,4,14,0.06
2013-9-14,69,59,53,55,52,50,91,79,53,30.04,29.91,12,6,18,0.01
2013-9-15,67,61,57,60,57,54,96,88,75,29.93,29.73,11,3,13,0.23
2013-9-16,58,56,54,57,54,52,97,92,83,29.73,29.53,12,4,19,0.16
2013-9-17,55,49,44,52,46,41,96,87,67,29.71,29.51,12,5,26,0.05
2013-9-18,57,49,42,55,47,40,96,93,87,29.69,29.45,10,4,17,0.38
2013-9-19,56,50,44,51,46,43,96,88,75,29.96,29.62,12,5,17,0.23
2013-9-20,58,52,49,53,49,45,95,89,85,30.08,29.93,8,4,15,0.18
2013-9-21,58,54,51,53,51,48,95,89,79,30.35,30.08,7,3,14,0.00
2013-9-22,61,54,48,54,50,47,96,87,71,30.36,30.25,8,4,13,0.00
2013-9-23,62,58,54,55,52,50,91,82,71,30.24,30.08,10,6,16,0.00
2013-9-24,64,57,51,55,52,49,96,84,72,30.08,29.94,9,4,14,0.00
2013-9-25,62,55,50,56,52,48,97,90,80,29.97,29.83,7,2,9,0.00
2013-9-26,65,55,48,57,52,45,97,89,66,30.07,29.78,10,4,21,0.02
2013-9-27,55,46,37,46,42,36,98,86,65,30.12,30.05,5,1,9,0.00
2013-9-28,58,44,32,47,40,32,98,86,57,30.08,29.99,8,2,10,0.01
2013-9-29,58,47,36,45,41,34,97,81,58,30.03,29.95,18,6,20,0.00
2013-9-30,57,46,38,42,39,35,95,79,53,29.96,29.88,12,7,21,0.00
2013-10-1,54,42,32,42,36,32,97,82,52,30.11,29.94,9,3,17,0.01
2013-10-2,53,40,31,41,34,30,97,80,53,30.38,30.12,11,4,17,0.01
2013-10-3,53,41,31,37,33,27,95,76,52,30.42,30.36,15,5,19,0.00
2013-10-4,57,41,28,39,32,26,92,75,45,30.39,30.27,9,4,15,0.00
2013-10-5,57,43,29,43,36,26,95,77,55,30.25,30.09,6,2,11,0.00
2013-10-6,58,48,42,45,42,40,94,82,61,30.33,30.14,3,0,7,0.00
2013-10-7,55,47,42,49,44,40,97,91,79,30.40,30.33,3,0,6,0.00
2013-10-8,62,47,38,52,44,37,98,91,66,30.35,30.23,4,1,9,0.01
2013-10-9,55,49,42,51,47,42,98,92,84,30.24,29.94,7,3,11,0.01
2013-10-10,62,53,47,52,49,46,96,86,68,29.93,29.67,10,4,16,1.04
2013-10-11,55,47,42,55,46,41,98,96,91,30.12,29.81,12,3,17,0.42
2013-10-12,52,46,38,51,45,38,98,97,96,30.14,30.01,6,2,12,0.06
2013-10-13,56,47,40,49,44,40,97,89,66,30.19,30.06,10,4,17,0.00
2013-10-14,58,45,35,51,43,34,98,93,76,30.21,30.09,5,1,9,0.01
2013-10-15,57,48,41,50,46,40,98,90,76,30.09,29.77,11,4,17,0.05
2013-10-16,52,47,41,47,44,40,97,89,75,30.02,29.75,6,2,14,0.03
2013-10-17,57,48,39,51,44,38,97,88,76,30.02,29.89,13,6,22,0.13
2013-10-18,54,50,42,49,44,40,94,82,72,30.17,29.89,12,5,21,0.07
2013-10-19,59,46,33,48,42,32,98,88,65,30.18,30.04,8,2,13,0.01
2013-10-20,64,54,46,57,50,44,97,87,74,30.08,30.01,7,2,11,0.29
2013-10-21,66,59,54,57,54,52,95,85,71,30.07,30.03,10,4,18,0.00
2013-10-22,69,57,46,59,52,45,98,86,67,30.07,29.93,9,2,13,0.00
2013-10-23,64,55,46,58,52,46,98,91,79,29.99,29.87,6,2,9,0.01
2013-10-24,66,58,50,56,53,48,95,82,64,30.16,29.98,14,4,16,0.01
2013-10-25,59,50,41,55,49,40,98,96,85,30.15,30.07,5,1,8,0.01
2013-10-26,69,58,50,58,53,49,98,86,69,30.08,30.00,8,3,15,0.00
2013-10-27,67,60,54,55,51,46,91,73,54,29.99,29.78,19,6,30,0.00
2013-10-28,72,61,54,53,49,46,77,65,40,29.91,29.66,18,8,23,0.00
2013-10-29,60,54,49,49,45,44,83,72,63,30.08,29.82,11,5,22,0.00
2013-10-30,56,48,38,45,40,34,85,74,56,30.37,30.09,11,4,21,0.00
2013-10-31,53,39,30,42,35,29,97,86,52,30.40,30.23,4,1,9,0.00
2013-11-1,51,44,35,44,40,33,95,88,76,30.23,30.00,9,3,13,0.00
2013-11-2,57,50,42,53,47,40,96,89,83,29.99,29.72,12,4,22,0.03
2013-11-3,57,50,44,52,46,39,92,84,76,29.80,29.61,15,6,23,0.14
2013-11-4,54,48,41,44,40,36,82,75,60,29.79,29.33,17,8,23,0.00
2013-11-5,52,44,38,45,39,32,92,81,73,29.57,29.34,11,5,17,0.01
2013-11-6,49,45,37,44,40,33,94,83,65,29.77,29.42,14,7,23,0.25
2013-11-7,61,55,46,53,50,44,96,85,72,29.88,29.73,25,9,36,0.04
2013-11-8,63,56,52,52,50,47,88,79,67,29.88,29.76,12,5,21,0.00
2013-11-9,56,50,42,50,45,38,92,83,76,29.92,29.75,14,6,22,0.06
2013-11-10,48,42,37,43,39,35,95,89,74,30.02,29.64,10,3,16,0.41
2013-11-11,44,41,39,39,37,34,94,86,76,30.51,30.04,5,1,9,0.01
2013-11-12,45,38,31,37,34,29,95,86,70,30.50,30.28,5,1,14,0.00
2013-11-13,42,36,32,39,34,31,95,93,88,30.46,30.29,9,4,11,0.00
2013-11-14,37,33,29,35,32,28,98,96,92,30.41,30.16,4,1,9,0.01
2013-11-15,39,37,35,38,36,34,97,95,92,30.44,30.19,4,1,6,0.06
2013-11-16,47,40,35,42,38,35,98,93,80,30.47,30.37,3,0,7,0.00
2013-11-17,38,35,32,37,34,31,98,98,97,30.36,30.17,5,2,10,0.01
2013-11-18,43,40,36,42,39,36,99,96,91,30.16,29.88,7,3,11,0.00
2013-11-19,46,44,41,44,41,39,93,91,89,29.88,29.62,8,4,10,0.01
2013-11-20,44,41,38,42,40,36,97,93,90,29.66,29.53,11,4,18,0.14
2013-11-21,42,40,38,41,38,34,96,92,86,29.65,29.54,7,3,12,0.00
2013-11-22,47,44,42,42,41,40,97,91,80,29.85,29.59,9,4,14,0.00
2013-11-23,45,42,40,42,40,38,96,91,84,29.95,29.84,5,2,11,0.00
2013-11-24,44,40,34,42,37,26,93,88,73,30.12,29.93,9,3,22,0.01
2013-11-25,36,32,29,29,26,24,85,78,72,30.33,30.13,13,4,19,0.00
2013-11-26,34,32,29,29,27,26,88,83,70,30.51,30.33,9,3,15,0.00
2013-11-27,34,28,23,26,23,20,92,83,71,30.57,30.49,10,4,15,0.00
2013-11-28,35,33,30,32,29,23,93,83,73,30.48,30.31,13,8,21,0.00
2013-11-29,40,37,34,35,34,32,93,88,80,30.33,29.86,13,8,20,0.05
2013-11-30,40,38,36,36,35,34,93,88,83,30.27,29.84,13,7,21,0.05
2013-12-1,42,38,36,36,35,34,92,86,77,30.38,30.28,10,5,16,0.01
2013-12-2,42,37,29,37,34,28,96,90,74,30.62,30.39,4,2,10,0.00
2013-12-3,35,29,24,32,28,23,97,95,88,30.60,30.41,2,0,3,0.01
2013-12-4,36,30,23,33,27,22,97,92,85,30.40,30.24,14,4,19,0.00
2013-12-5,41,37,34,36,33,31,93,84,74,30.33,29.66,19,9,36,0.03
2013-12-6,39,35,31,37,27,24,95,75,62,29.96,29.67,24,13,45,0.09
2013-12-7,36,34,31,32,28,24,94,79,67,30.23,29.96,20,10,30,0.00
2013-12-8,42,39,36,37,36,33,91,87,81,30.31,30.22,15,7,23,0.00
2013-12-9,44,43,42,40,39,37,90,87,84,30.44,30.17,19,10,26,0.07
2013-12-10,47,45,43,44,42,40,93,90,88,30.63,30.45,8,4,12,0.00
2013-12-11,44,42,39,41,39,37,95,92,90,30.62,30.56,7,2,12,0.00
2013-12-12,38,35,33,37,34,32,98,97,96,30.57,30.44,5,2,8,0.01
2013-12-13,33,32,31,32,31,30,98,98,98,30.43,30.32,5,2,7,0.00
2013-12-14,38,34,30,35,33,30,98,94,88,30.47,30.31,9,4,17,0.00
2013-12-15,41,39,37,36,34,32,94,84,74,30.51,30.44,13,7,19,0.01
2013-12-16,48,38,31,35,31,28,92,77,56,30.52,30.46,7,2,14,0.00
2013-12-17,38,30,25,31,28,24,96,90,77,30.47,30.42,5,2,9,0.01
2013-12-18,30,29,27,28,27,25,95,93,90,30.42,30.21,7,3,10,0.00
2013-12-19,31,30,27,28,27,25,94,89,85,30.19,30.03,8,3,14,0.00
2013-12-20,38,34,30,35,30,27,92,87,81,30.51,30.12,9,3,14,0.00
2013-12-21,42,36,32,34,32,30,92,85,70,30.56,30.37,9,3,14,0.00
2013-12-22,49,42,34,44,37,31,91,81,73,30.36,30.14,14,5,20,0.01
2013-12-23,50,46,40,42,40,37,88,79,72,30.18,29.98,14,6,21,0.01
2013-12-24,43,36,31,37,34,29,96,90,81,29.98,29.66,12,3,17,0.00
2013-12-25,43,37,31,39,35,30,98,95,85,29.65,29.40,7,2,13,0.01
2013-12-26,50,39,34,45,37,33,98,95,82,29.62,29.32,8,2,12,0.00
2013-12-27,47,42,37,40,38,34,94,86,72,29.86,29.62,9,5,17,0.01
2013-12-28,40,36,31,37,34,29,97,94,90,29.83,29.76,6,2,10,0.01
2013-12-29,44,40,35,38,36,34,97,84,73,30.30,29.81,10,5,20,0.00
2013-12-30,41,34,26,35,31,24,96,89,76,30.43,30.30,5,3,10,0.00
2013-12-31,34,28,21,33,27,19,96,95,94,30.35,30.12,3,1,6,0.01
2014-1-1,39,36,31,35,33,28,97,90,82,30.11,29.97,7,2,10,0.00
2014-1-2,39,35,28,35,32,27,96,90,85,29.96,29.85,8,2,14,0.00